sensor_id;sensor_type;location;lat;lon;timestamp;P1;durP1;ratioP1;P2;durP2;ratioP2
74995;SDS011;63545;51.690;5.202;2022-09-28T00:00:29;45.03;;;21.00;;
74995;SDS011;63545;51.690;5.202;2022-09-28T00:02:56;44.80;;;20.93;;
74995;SDS011;63545;51.690;5.202;2022-09-28T00:05:22;45.53;;;20.07;;
74995;SDS011;63545;51.690;5.202;2022-09-28T00:07:51;44.00;;;20.37;;
74995;SDS011;63545;51.690;5.202;2022-09-28T00:10:17;41.90;;;19.58;;
74995;SDS011;63545;51.690;5.202;2022-09-28T00:12:42;37.67;;;18.37;;
74995;SDS011;63545;51.690;5.202;2022-09-28T00:15:07;38.10;;;18.27;;
74995;SDS011;63545;51.690;5.202;2022-09-28T00:17:33;43.13;;;18.63;;
74995;SDS011;63545;51.690;5.202;2022-09-28T00:20:00;39.38;;;17.73;;
74995;SDS011;63545;51.690;5.202;2022-09-28T00:22:28;38.03;;;17.83;;
74995;SDS011;63545;51.690;5.202;2022-09-28T00:24:54;34.33;;;17.80;;
74995;SDS011;63545;51.690;5.202;2022-09-28T00:27:19;37.13;;;17.73;;
74995;SDS011;63545;51.690;5.202;2022-09-28T00:29:44;36.77;;;17.83;;
74995;SDS011;63545;51.690;5.202;2022-09-28T00:32:10;37.97;;;17.47;;
74995;SDS011;63545;51.690;5.202;2022-09-28T00:34:38;39.13;;;18.20;;
74995;SDS011;63545;51.690;5.202;2022-09-28T00:37:06;40.30;;;17.87;;
74995;SDS011;63545;51.690;5.202;2022-09-28T00:39:33;45.13;;;17.70;;
74995;SDS011;63545;51.690;5.202;2022-09-28T00:42:00;36.20;;;16.85;;
74995;SDS011;63545;51.690;5.202;2022-09-28T00:52:45;39.10;;;17.27;;
74995;SDS011;63545;51.690;5.202;2022-09-28T00:57:58;40.20;;;16.95;;
74995;SDS011;63545;51.690;5.202;2022-09-28T01:00:26;33.70;;;16.35;;
74995;SDS011;63545;51.690;5.202;2022-09-28T01:02:52;38.27;;;16.83;;
74995;SDS011;63545;51.690;5.202;2022-09-28T01:05:18;34.00;;;16.65;;
74995;SDS011;63545;51.690;5.202;2022-09-28T01:07:44;43.28;;;17.55;;
74995;SDS011;63545;51.690;5.202;2022-09-28T01:10:10;38.30;;;16.50;;
74995;SDS011;63545;51.690;5.202;2022-09-28T01:12:37;39.50;;;17.07;;
74995;SDS011;63545;51.690;5.202;2022-09-28T01:15:02;35.08;;;16.45;;
74995;SDS011;63545;51.690;5.202;2022-09-28T01:28:26;39.50;;;15.00;;
74995;SDS011;63545;51.690;5.202;2022-09-28T01:33:53;40.88;;;16.10;;
74995;SDS011;63545;51.690;5.202;2022-09-28T01:38:48;46.05;;;17.95;;
74995;SDS011;63545;51.690;5.202;2022-09-28T01:41:17;39.75;;;17.27;;
74995;SDS011;63545;51.690;5.202;2022-09-28T01:43:47;50.60;;;17.97;;
74995;SDS011;63545;51.690;5.202;2022-09-28T01:46:17;51.15;;;18.35;;
74995;SDS011;63545;51.690;5.202;2022-09-28T01:48:46;52.22;;;18.50;;
74995;SDS011;63545;51.690;5.202;2022-09-28T01:51:18;45.55;;;18.80;;
74995;SDS011;63545;51.690;5.202;2022-09-28T01:53:50;39.33;;;17.10;;
74995;SDS011;63545;51.690;5.202;2022-09-28T01:56:21;43.40;;;17.00;;
74995;SDS011;63545;51.690;5.202;2022-09-28T01:58:52;41.25;;;16.90;;
74995;SDS011;63545;51.690;5.202;2022-09-28T02:01:26;33.55;;;15.70;;
74995;SDS011;63545;51.690;5.202;2022-09-28T02:03:56;37.92;;;15.52;;
74995;SDS011;63545;51.690;5.202;2022-09-28T02:06:35;39.70;;;15.85;;
74995;SDS011;63545;51.690;5.202;2022-09-28T02:09:06;41.73;;;15.30;;
74995;SDS011;63545;51.690;5.202;2022-09-28T02:11:34;42.53;;;15.93;;
74995;SDS011;63545;51.690;5.202;2022-09-28T02:14:05;43.97;;;16.15;;
74995;SDS011;63545;51.690;5.202;2022-09-28T02:16:39;43.13;;;15.65;;
74995;SDS011;63545;51.690;5.202;2022-09-28T02:19:10;36.83;;;15.20;;
74995;SDS011;63545;51.690;5.202;2022-09-28T02:26:54;43.08;;;14.95;;
74995;SDS011;63545;51.690;5.202;2022-09-28T02:29:23;42.30;;;14.30;;
74995;SDS011;63545;51.690;5.202;2022-09-28T02:31:49;34.80;;;13.37;;
74995;SDS011;63545;51.690;5.202;2022-09-28T02:34:15;33.58;;;12.60;;
74995;SDS011;63545;51.690;5.202;2022-09-28T02:36:40;31.10;;;12.80;;
74995;SDS011;63545;51.690;5.202;2022-09-28T02:39:11;31.77;;;12.37;;
74995;SDS011;63545;51.690;5.202;2022-09-28T02:44:25;24.95;;;9.35;;
74995;SDS011;63545;51.690;5.202;2022-09-28T02:47:13;21.45;;;8.75;;
74995;SDS011;63545;51.690;5.202;2022-09-28T02:49:55;19.37;;;8.00;;
74995;SDS011;63545;51.690;5.202;2022-09-28T02:52:47;22.70;;;7.43;;
74995;SDS011;63545;51.690;5.202;2022-09-28T03:00:31;14.10;;;5.88;;
74995;SDS011;63545;51.690;5.202;2022-09-28T03:03:11;15.07;;;5.20;;
74995;SDS011;63545;51.690;5.202;2022-09-28T03:08:57;15.88;;;5.60;;
74995;SDS011;63545;51.690;5.202;2022-09-28T03:11:51;13.68;;;5.28;;
74995;SDS011;63545;51.690;5.202;2022-09-28T03:14:20;11.52;;;5.13;;
74995;SDS011;63545;51.690;5.202;2022-09-28T03:16:45;12.33;;;4.47;;
74995;SDS011;63545;51.690;5.202;2022-09-28T03:19:11;8.40;;;4.50;;
74995;SDS011;63545;51.690;5.202;2022-09-28T03:21:37;10.02;;;4.70;;
74995;SDS011;63545;51.690;5.202;2022-09-28T03:24:02;13.00;;;3.90;;
74995;SDS011;63545;51.690;5.202;2022-09-28T03:26:30;8.65;;;3.45;;
74995;SDS011;63545;51.690;5.202;2022-09-28T03:28:55;4.57;;;3.30;;
74995;SDS011;63545;51.690;5.202;2022-09-28T03:31:21;7.90;;;3.60;;
74995;SDS011;63545;51.690;5.202;2022-09-28T03:33:46;8.47;;;3.30;;
74995;SDS011;63545;51.690;5.202;2022-09-28T03:36:12;7.03;;;3.33;;
74995;SDS011;63545;51.690;5.202;2022-09-28T03:38:39;10.27;;;3.60;;
74995;SDS011;63545;51.690;5.202;2022-09-28T03:41:04;8.73;;;3.45;;
74995;SDS011;63545;51.690;5.202;2022-09-28T03:43:29;13.40;;;3.50;;
74995;SDS011;63545;51.690;5.202;2022-09-28T03:45:56;8.37;;;4.03;;
74995;SDS011;63545;51.690;5.202;2022-09-28T03:48:23;9.85;;;4.15;;
74995;SDS011;63545;51.690;5.202;2022-09-28T03:50:53;15.52;;;4.80;;
74995;SDS011;63545;51.690;5.202;2022-09-28T03:53:19;12.43;;;4.60;;
74995;SDS011;63545;51.690;5.202;2022-09-28T03:55:44;10.15;;;4.65;;
74995;SDS011;63545;51.690;5.202;2022-09-28T03:58:09;14.67;;;4.93;;
74995;SDS011;63545;51.690;5.202;2022-09-28T04:00:36;16.57;;;4.97;;
74995;SDS011;63545;51.690;5.202;2022-09-28T04:03:02;13.20;;;4.95;;
74995;SDS011;63545;51.690;5.202;2022-09-28T04:05:27;10.63;;;4.80;;
74995;SDS011;63545;51.690;5.202;2022-09-28T04:07:53;12.07;;;4.50;;
74995;SDS011;63545;51.690;5.202;2022-09-28T04:10:20;12.43;;;4.33;;
74995;SDS011;63545;51.690;5.202;2022-09-28T04:12:46;12.13;;;4.10;;
74995;SDS011;63545;51.690;5.202;2022-09-28T04:15:11;10.50;;;3.70;;
74995;SDS011;63545;51.690;5.202;2022-09-28T04:17:36;10.53;;;3.83;;
74995;SDS011;63545;51.690;5.202;2022-09-28T04:20:03;9.30;;;4.40;;
74995;SDS011;63545;51.690;5.202;2022-09-28T04:22:28;10.60;;;3.92;;
74995;SDS011;63545;51.690;5.202;2022-09-28T04:24:54;9.73;;;3.30;;
74995;SDS011;63545;51.690;5.202;2022-09-28T04:27:19;8.63;;;3.37;;
74995;SDS011;63545;51.690;5.202;2022-09-28T04:30:03;5.97;;;3.13;;
74995;SDS011;63545;51.690;5.202;2022-09-28T04:32:30;8.50;;;2.93;;
74995;SDS011;63545;51.690;5.202;2022-09-28T04:34:55;9.20;;;2.47;;
74995;SDS011;63545;51.690;5.202;2022-09-28T04:37:21;8.57;;;2.33;;
74995;SDS011;63545;51.690;5.202;2022-09-28T04:39:46;7.60;;;3.00;;
74995;SDS011;63545;51.690;5.202;2022-09-28T04:42:11;7.53;;;2.27;;
74995;SDS011;63545;51.690;5.202;2022-09-28T04:44:37;10.40;;;2.80;;
74995;SDS011;63545;51.690;5.202;2022-09-28T04:47:02;8.13;;;3.00;;
74995;SDS011;63545;51.690;5.202;2022-09-28T04:49:27;12.47;;;3.10;;
74995;SDS011;63545;51.690;5.202;2022-09-28T04:51:53;10.30;;;3.13;;
74995;SDS011;63545;51.690;5.202;2022-09-28T04:54:18;8.13;;;2.85;;
74995;SDS011;63545;51.690;5.202;2022-09-28T04:56:44;6.10;;;2.93;;
74995;SDS011;63545;51.690;5.202;2022-09-28T04:59:09;8.47;;;3.07;;
74995;SDS011;63545;51.690;5.202;2022-09-28T05:01:35;13.20;;;3.05;;
74995;SDS011;63545;51.690;5.202;2022-09-28T05:04:01;10.80;;;3.53;;
74995;SDS011;63545;51.690;5.202;2022-09-28T05:06:26;12.93;;;3.00;;
74995;SDS011;63545;51.690;5.202;2022-09-28T05:08:54;9.90;;;3.43;;
74995;SDS011;63545;51.690;5.202;2022-09-28T05:11:21;9.63;;;3.00;;
74995;SDS011;63545;51.690;5.202;2022-09-28T05:13:47;8.63;;;2.95;;
74995;SDS011;63545;51.690;5.202;2022-09-28T05:16:14;11.50;;;3.22;;
74995;SDS011;63545;51.690;5.202;2022-09-28T05:18:40;11.83;;;3.80;;
74995;SDS011;63545;51.690;5.202;2022-09-28T05:21:12;7.00;;;3.50;;
74995;SDS011;63545;51.690;5.202;2022-09-28T05:23:39;8.80;;;3.25;;
74995;SDS011;63545;51.690;5.202;2022-09-28T05:26:05;10.93;;;2.73;;
74995;SDS011;63545;51.690;5.202;2022-09-28T05:28:31;8.80;;;3.08;;
74995;SDS011;63545;51.690;5.202;2022-09-28T05:31:03;9.10;;;2.95;;
74995;SDS011;63545;51.690;5.202;2022-09-28T05:33:29;8.55;;;3.22;;
74995;SDS011;63545;51.690;5.202;2022-09-28T05:35:55;8.37;;;2.67;;
74995;SDS011;63545;51.690;5.202;2022-09-28T05:38:21;9.82;;;2.70;;
74995;SDS011;63545;51.690;5.202;2022-09-28T05:40:47;6.85;;;2.70;;
74995;SDS011;63545;51.690;5.202;2022-09-28T05:43:13;20.27;;;7.93;;
74995;SDS011;63545;51.690;5.202;2022-09-28T05:45:38;7.13;;;2.73;;
74995;SDS011;63545;51.690;5.202;2022-09-28T05:48:04;10.23;;;2.65;;
74995;SDS011;63545;51.690;5.202;2022-09-28T05:50:29;14.03;;;5.17;;
74995;SDS011;63545;51.690;5.202;2022-09-28T05:52:58;8.00;;;2.83;;
74995;SDS011;63545;51.690;5.202;2022-09-28T05:55:27;14.85;;;3.10;;
74995;SDS011;63545;51.690;5.202;2022-09-28T05:57:56;6.03;;;2.50;;
74995;SDS011;63545;51.690;5.202;2022-09-28T06:00:21;9.82;;;3.05;;
74995;SDS011;63545;51.690;5.202;2022-09-28T06:02:54;10.43;;;3.20;;
74995;SDS011;63545;51.690;5.202;2022-09-28T06:05:24;5.78;;;3.45;;
74995;SDS011;63545;51.690;5.202;2022-09-28T06:07:50;11.43;;;3.72;;
74995;SDS011;63545;51.690;5.202;2022-09-28T06:10:15;13.10;;;3.90;;
74995;SDS011;63545;51.690;5.202;2022-09-28T06:12:40;14.77;;;4.50;;
74995;SDS011;63545;51.690;5.202;2022-09-28T06:15:06;14.40;;;4.80;;
74995;SDS011;63545;51.690;5.202;2022-09-28T06:17:32;9.85;;;4.55;;
74995;SDS011;63545;51.690;5.202;2022-09-28T06:19:57;10.97;;;5.43;;
74995;SDS011;63545;51.690;5.202;2022-09-28T06:22:23;18.30;;;5.97;;
74995;SDS011;63545;51.690;5.202;2022-09-28T06:24:48;11.35;;;5.47;;
74995;SDS011;63545;51.690;5.202;2022-09-28T06:27:13;13.83;;;5.70;;
74995;SDS011;63545;51.690;5.202;2022-09-28T06:29:39;14.10;;;5.33;;
74995;SDS011;63545;51.690;5.202;2022-09-28T06:32:04;12.70;;;5.30;;
74995;SDS011;63545;51.690;5.202;2022-09-28T06:34:31;12.75;;;4.95;;
74995;SDS011;63545;51.690;5.202;2022-09-28T06:36:56;12.77;;;4.83;;
74995;SDS011;63545;51.690;5.202;2022-09-28T06:39:22;20.30;;;7.80;;
74995;SDS011;63545;51.690;5.202;2022-09-28T06:41:47;28.37;;;6.93;;
74995;SDS011;63545;51.690;5.202;2022-09-28T06:44:12;14.27;;;5.97;;
74995;SDS011;63545;51.690;5.202;2022-09-28T06:46:38;14.33;;;5.90;;
74995;SDS011;63545;51.690;5.202;2022-09-28T06:49:04;14.50;;;5.60;;
74995;SDS011;63545;51.690;5.202;2022-09-28T06:51:33;18.27;;;6.80;;
74995;SDS011;63545;51.690;5.202;2022-09-28T06:53:58;21.20;;;6.10;;
74995;SDS011;63545;51.690;5.202;2022-09-28T06:56:24;13.70;;;6.13;;
74995;SDS011;63545;51.690;5.202;2022-09-28T06:58:49;14.47;;;5.73;;
74995;SDS011;63545;51.690;5.202;2022-09-28T07:01:14;17.10;;;5.68;;
74995;SDS011;63545;51.690;5.202;2022-09-28T07:03:39;17.77;;;5.10;;
74995;SDS011;63545;51.690;5.202;2022-09-28T07:06:05;13.57;;;5.50;;
74995;SDS011;63545;51.690;5.202;2022-09-28T07:08:30;15.60;;;5.70;;
74995;SDS011;63545;51.690;5.202;2022-09-28T07:10:55;13.60;;;5.30;;
74995;SDS011;63545;51.690;5.202;2022-09-28T07:13:24;17.23;;;5.40;;
74995;SDS011;63545;51.690;5.202;2022-09-28T07:15:53;16.02;;;6.20;;
74995;SDS011;63545;51.690;5.202;2022-09-28T07:18:19;14.95;;;5.75;;
74995;SDS011;63545;51.690;5.202;2022-09-28T07:20:45;18.23;;;6.17;;
74995;SDS011;63545;51.690;5.202;2022-09-28T07:23:11;20.00;;;5.90;;
74995;SDS011;63545;51.690;5.202;2022-09-28T07:25:36;17.30;;;6.23;;
74995;SDS011;63545;51.690;5.202;2022-09-28T07:28:02;17.50;;;6.50;;
74995;SDS011;63545;51.690;5.202;2022-09-28T07:30:29;20.20;;;6.72;;
74995;SDS011;63545;51.690;5.202;2022-09-28T07:32:57;21.73;;;6.45;;
74995;SDS011;63545;51.690;5.202;2022-09-28T07:35:23;16.52;;;6.45;;
74995;SDS011;63545;51.690;5.202;2022-09-28T07:37:55;23.13;;;6.13;;
74995;SDS011;63545;51.690;5.202;2022-09-28T07:40:22;18.20;;;7.63;;
74995;SDS011;63545;51.690;5.202;2022-09-28T07:43:06;11.53;;;5.57;;
74995;SDS011;63545;51.690;5.202;2022-09-28T07:45:32;17.20;;;6.45;;
74995;SDS011;63545;51.690;5.202;2022-09-28T07:48:01;17.85;;;6.15;;
74995;SDS011;63545;51.690;5.202;2022-09-28T07:50:26;12.98;;;5.40;;
74995;SDS011;63545;51.690;5.202;2022-09-28T07:52:52;16.37;;;6.23;;
74995;SDS011;63545;51.690;5.202;2022-09-28T07:55:17;17.07;;;5.83;;
74995;SDS011;63545;51.690;5.202;2022-09-28T07:57:43;17.47;;;5.73;;
74995;SDS011;63545;51.690;5.202;2022-09-28T08:00:11;18.05;;;6.03;;
74995;SDS011;63545;51.690;5.202;2022-09-28T08:02:37;16.50;;;7.00;;
74995;SDS011;63545;51.690;5.202;2022-09-28T08:05:02;18.80;;;7.17;;
74995;SDS011;63545;51.690;5.202;2022-09-28T08:07:27;21.43;;;8.00;;
74995;SDS011;63545;51.690;5.202;2022-09-28T08:09:53;21.13;;;8.17;;
74995;SDS011;63545;51.690;5.202;2022-09-28T08:12:18;18.73;;;8.23;;
74995;SDS011;63545;51.690;5.202;2022-09-28T08:14:45;18.40;;;7.13;;
74995;SDS011;63545;51.690;5.202;2022-09-28T08:17:11;19.50;;;8.48;;
74995;SDS011;63545;51.690;5.202;2022-09-28T08:19:36;24.00;;;8.40;;
74995;SDS011;63545;51.690;5.202;2022-09-28T08:22:20;16.38;;;8.25;;
74995;SDS011;63545;51.690;5.202;2022-09-28T08:24:47;14.90;;;8.17;;
74995;SDS011;63545;51.690;5.202;2022-09-28T08:27:13;15.25;;;7.70;;
74995;SDS011;63545;51.690;5.202;2022-09-28T08:29:39;15.68;;;7.43;;
74995;SDS011;63545;51.690;5.202;2022-09-28T08:32:05;15.97;;;7.50;;
74995;SDS011;63545;51.690;5.202;2022-09-28T08:34:32;16.20;;;6.50;;
74995;SDS011;63545;51.690;5.202;2022-09-28T08:36:58;17.38;;;6.53;;
74995;SDS011;63545;51.690;5.202;2022-09-28T08:39:24;11.87;;;5.67;;
74995;SDS011;63545;51.690;5.202;2022-09-28T08:44:21;15.38;;;5.30;;
74995;SDS011;63545;51.690;5.202;2022-09-28T08:46:48;12.07;;;5.03;;
74995;SDS011;63545;51.690;5.202;2022-09-28T08:49:27;16.65;;;5.20;;
74995;SDS011;63545;51.690;5.202;2022-09-28T08:51:58;15.57;;;4.95;;
74995;SDS011;63545;51.690;5.202;2022-09-28T08:57:26;9.13;;;4.18;;
74995;SDS011;63545;51.690;5.202;2022-09-28T09:02:57;10.02;;;4.88;;
74995;SDS011;63545;51.690;5.202;2022-09-28T09:05:23;10.27;;;3.90;;
74995;SDS011;63545;51.690;5.202;2022-09-28T09:16:31;9.33;;;4.03;;
74995;SDS011;63545;51.690;5.202;2022-09-28T09:19:09;7.57;;;3.67;;
74995;SDS011;63545;51.690;5.202;2022-09-28T09:24:25;6.40;;;3.50;;
74995;SDS011;63545;51.690;5.202;2022-09-28T09:26:59;6.20;;;3.70;;
74995;SDS011;63545;51.690;5.202;2022-09-28T09:29:42;6.17;;;4.10;;
74995;SDS011;63545;51.690;5.202;2022-09-28T09:32:42;11.70;;;5.47;;
74995;SDS011;63545;51.690;5.202;2022-09-28T09:47:06;6.72;;;3.90;;
74995;SDS011;63545;51.690;5.202;2022-09-28T09:49:13;9.23;;;3.63;;
74995;SDS011;63545;51.690;5.202;2022-09-28T09:54:12;8.48;;;3.05;;
74995;SDS011;63545;51.690;5.202;2022-09-28T09:56:53;6.87;;;3.10;;
74995;SDS011;63545;51.690;5.202;2022-09-28T09:59:24;6.28;;;3.17;;
74995;SDS011;63545;51.690;5.202;2022-09-28T10:01:52;4.55;;;2.25;;
74995;SDS011;63545;51.690;5.202;2022-09-28T10:04:25;7.87;;;2.80;;
74995;SDS011;63545;51.690;5.202;2022-09-28T10:06:56;5.18;;;2.00;;
74995;SDS011;63545;51.690;5.202;2022-09-28T10:09:23;5.30;;;2.45;;
74995;SDS011;63545;51.690;5.202;2022-09-28T10:11:51;7.80;;;1.90;;
74995;SDS011;63545;51.690;5.202;2022-09-28T10:14:19;4.78;;;1.63;;
74995;SDS011;63545;51.690;5.202;2022-09-28T10:16:49;4.80;;;1.67;;
74995;SDS011;63545;51.690;5.202;2022-09-28T10:19:16;3.72;;;1.98;;
74995;SDS011;63545;51.690;5.202;2022-09-28T10:21:42;1.88;;;1.48;;
74995;SDS011;63545;51.690;5.202;2022-09-28T10:24:12;3.47;;;1.40;;
74995;SDS011;63545;51.690;5.202;2022-09-28T10:26:42;4.32;;;1.48;;
74995;SDS011;63545;51.690;5.202;2022-09-28T10:29:11;3.90;;;1.50;;
74995;SDS011;63545;51.690;5.202;2022-09-28T10:31:46;2.15;;;1.58;;
74995;SDS011;63545;51.690;5.202;2022-09-28T10:34:14;3.50;;;1.70;;
74995;SDS011;63545;51.690;5.202;2022-09-28T10:39:35;3.17;;;1.52;;
74995;SDS011;63545;51.690;5.202;2022-09-28T10:42:06;2.70;;;1.40;;
74995;SDS011;63545;51.690;5.202;2022-09-28T10:44:33;3.63;;;1.65;;
74995;SDS011;63545;51.690;5.202;2022-09-28T10:47:02;2.97;;;1.48;;
74995;SDS011;63545;51.690;5.202;2022-09-28T10:49:36;1.63;;;1.40;;
74995;SDS011;63545;51.690;5.202;2022-09-28T10:52:04;4.20;;;1.65;;
74995;SDS011;63545;51.690;5.202;2022-09-28T10:54:32;2.23;;;1.30;;
74995;SDS011;63545;51.690;5.202;2022-09-28T10:56:58;6.00;;;2.38;;
74995;SDS011;63545;51.690;5.202;2022-09-28T11:01:53;3.77;;;1.70;;
74995;SDS011;63545;51.690;5.202;2022-09-28T11:04:21;3.97;;;1.60;;
74995;SDS011;63545;51.690;5.202;2022-09-28T11:06:50;4.43;;;1.38;;
74995;SDS011;63545;51.690;5.202;2022-09-28T11:10:16;4.00;;;1.70;;
74995;SDS011;63545;51.690;5.202;2022-09-28T11:12:13;9.25;;;2.35;;
74995;SDS011;63545;51.690;5.202;2022-09-28T11:14:40;3.95;;;1.80;;
74995;SDS011;63545;51.690;5.202;2022-09-28T11:22:48;4.93;;;1.77;;
74995;SDS011;63545;51.690;5.202;2022-09-28T11:27:55;3.38;;;1.90;;
74995;SDS011;63545;51.690;5.202;2022-09-28T11:30:38;3.22;;;1.45;;
74995;SDS011;63545;51.690;5.202;2022-09-28T11:33:11;4.93;;;1.70;;
74995;SDS011;63545;51.690;5.202;2022-09-28T11:49:24;7.32;;;1.42;;
74995;SDS011;63545;51.690;5.202;2022-09-28T11:51:55;4.32;;;1.45;;
74995;SDS011;63545;51.690;5.202;2022-09-28T11:57:13;2.00;;;0.95;;
74995;SDS011;63545;51.690;5.202;2022-09-28T12:00:02;1.23;;;0.90;;
74995;SDS011;63545;51.690;5.202;2022-09-28T12:05:33;1.50;;;0.77;;
74995;SDS011;63545;51.690;5.202;2022-09-28T12:08:12;3.15;;;0.98;;
74995;SDS011;63545;51.690;5.202;2022-09-28T12:13:10;1.60;;;1.00;;
74995;SDS011;63545;51.690;5.202;2022-09-28T12:21:06;2.17;;;0.93;;
74995;SDS011;63545;51.690;5.202;2022-09-28T12:23:39;2.92;;;1.10;;
74995;SDS011;63545;51.690;5.202;2022-09-28T12:26:09;1.67;;;1.10;;
74995;SDS011;63545;51.690;5.202;2022-09-28T12:28:50;3.10;;;1.02;;
74995;SDS011;63545;51.690;5.202;2022-09-28T12:34:14;4.27;;;1.07;;
74995;SDS011;63545;51.690;5.202;2022-09-28T12:37:01;1.48;;;0.77;;
74995;SDS011;63545;51.690;5.202;2022-09-28T12:50:28;2.85;;;0.80;;
74995;SDS011;63545;51.690;5.202;2022-09-28T13:10:32;1.95;;;0.70;;
74995;SDS011;63545;51.690;5.202;2022-09-28T13:15:49;2.20;;;0.80;;
74995;SDS011;63545;51.690;5.202;2022-09-28T13:23:35;1.67;;;0.93;;
74995;SDS011;63545;51.690;5.202;2022-09-28T13:26:17;2.83;;;0.90;;
74995;SDS011;63545;51.690;5.202;2022-09-28T13:29:14;2.97;;;0.90;;
74995;SDS011;63545;51.690;5.202;2022-09-28T13:31:48;3.45;;;0.80;;
74995;SDS011;63545;51.690;5.202;2022-09-28T13:34:16;2.38;;;0.90;;
74995;SDS011;63545;51.690;5.202;2022-09-28T13:36:44;2.53;;;1.00;;
74995;SDS011;63545;51.690;5.202;2022-09-28T13:42:03;2.53;;;0.93;;
74995;SDS011;63545;51.690;5.202;2022-09-28T13:44:43;3.67;;;1.00;;
74995;SDS011;63545;51.690;5.202;2022-09-28T13:53:06;1.93;;;1.20;;
74995;SDS011;63545;51.690;5.202;2022-09-28T13:58:51;1.33;;;0.73;;
74995;SDS011;63545;51.690;5.202;2022-09-28T14:01:36;2.40;;;0.73;;
74995;SDS011;63545;51.690;5.202;2022-09-28T14:04:20;3.17;;;1.02;;
74995;SDS011;63545;51.690;5.202;2022-09-28T14:06:52;4.43;;;1.10;;
74995;SDS011;63545;51.690;5.202;2022-09-28T14:14:51;19.17;;;1.35;;
74995;SDS011;63545;51.690;5.202;2022-09-28T14:19:52;5.60;;;1.00;;
74995;SDS011;63545;51.690;5.202;2022-09-28T14:28:00;2.85;;;1.10;;
74995;SDS011;63545;51.690;5.202;2022-09-28T14:38:30;7.33;;;0.90;;
74995;SDS011;63545;51.690;5.202;2022-09-28T14:53:54;2.45;;;0.80;;
74995;SDS011;63545;51.690;5.202;2022-09-28T14:56:29;2.25;;;1.00;;
74995;SDS011;63545;51.690;5.202;2022-09-28T14:58:57;2.38;;;0.70;;
74995;SDS011;63545;51.690;5.202;2022-09-28T15:01:22;2.33;;;0.80;;
74995;SDS011;63545;51.690;5.202;2022-09-28T15:03:55;1.13;;;0.73;;
74995;SDS011;63545;51.690;5.202;2022-09-28T15:06:23;2.15;;;0.80;;
74995;SDS011;63545;51.690;5.202;2022-09-28T15:08:49;1.90;;;0.75;;
74995;SDS011;63545;51.690;5.202;2022-09-28T15:11:16;1.27;;;0.67;;
74995;SDS011;63545;51.690;5.202;2022-09-28T15:13:44;1.88;;;0.70;;
74995;SDS011;63545;51.690;5.202;2022-09-28T15:16:11;2.93;;;0.67;;
74995;SDS011;63545;51.690;5.202;2022-09-28T15:21:35;0.93;;;0.70;;
74995;SDS011;63545;51.690;5.202;2022-09-28T15:24:02;0.60;;;0.50;;
74995;SDS011;63545;51.690;5.202;2022-09-28T15:26:47;0.77;;;0.60;;
74995;SDS011;63545;51.690;5.202;2022-09-28T15:29:16;1.10;;;0.70;;
74995;SDS011;63545;51.690;5.202;2022-09-28T15:31:42;1.95;;;0.77;;
74995;SDS011;63545;51.690;5.202;2022-09-28T15:34:30;1.55;;;0.73;;
74995;SDS011;63545;51.690;5.202;2022-09-28T15:37:17;2.15;;;0.80;;
74995;SDS011;63545;51.690;5.202;2022-09-28T15:39:46;2.05;;;0.98;;
74995;SDS011;63545;51.690;5.202;2022-09-28T15:42:12;1.33;;;0.67;;
74995;SDS011;63545;51.690;5.202;2022-09-28T15:44:41;1.45;;;0.80;;
74995;SDS011;63545;51.690;5.202;2022-09-28T15:49:39;1.35;;;0.80;;
74995;SDS011;63545;51.690;5.202;2022-09-28T15:57:48;2.33;;;0.80;;
74995;SDS011;63545;51.690;5.202;2022-09-28T16:03:17;2.25;;;0.82;;
74995;SDS011;63545;51.690;5.202;2022-09-28T16:08:20;1.15;;;1.00;;
74995;SDS011;63545;51.690;5.202;2022-09-28T16:11:09;1.13;;;0.88;;
74995;SDS011;63545;51.690;5.202;2022-09-28T16:16:17;2.20;;;1.50;;
74995;SDS011;63545;51.690;5.202;2022-09-28T16:18:47;2.63;;;1.30;;
74995;SDS011;63545;51.690;5.202;2022-09-28T16:24:17;1.00;;;0.90;;
74995;SDS011;63545;51.690;5.202;2022-09-28T16:26:44;1.52;;;1.10;;
74995;SDS011;63545;51.690;5.202;2022-09-28T16:29:22;2.63;;;1.30;;
74995;SDS011;63545;51.690;5.202;2022-09-28T16:31:51;2.05;;;1.30;;
74995;SDS011;63545;51.690;5.202;2022-09-28T16:34:24;1.42;;;1.08;;
74995;SDS011;63545;51.690;5.202;2022-09-28T16:36:50;1.00;;;0.90;;
74995;SDS011;63545;51.690;5.202;2022-09-28T16:39:16;1.52;;;1.02;;
74995;SDS011;63545;51.690;5.202;2022-09-28T16:41:43;1.30;;;0.90;;
74995;SDS011;63545;51.690;5.202;2022-09-28T16:44:18;2.90;;;1.20;;
74995;SDS011;63545;51.690;5.202;2022-09-28T16:46:47;1.60;;;1.20;;
74995;SDS011;63545;51.690;5.202;2022-09-28T16:49:13;2.83;;;1.90;;
74995;SDS011;63545;51.690;5.202;2022-09-28T16:51:45;2.00;;;1.23;;
74995;SDS011;63545;51.690;5.202;2022-09-28T16:54:17;2.40;;;1.20;;
74995;SDS011;63545;51.690;5.202;2022-09-28T16:57:03;2.90;;;1.60;;
74995;SDS011;63545;51.690;5.202;2022-09-28T16:59:29;1.63;;;0.90;;
74995;SDS011;63545;51.690;5.202;2022-09-28T17:01:56;2.38;;;1.15;;
74995;SDS011;63545;51.690;5.202;2022-09-28T17:04:22;2.27;;;0.90;;
74995;SDS011;63545;51.690;5.202;2022-09-28T17:06:52;2.67;;;0.90;;
74995;SDS011;63545;51.690;5.202;2022-09-28T17:09:21;2.50;;;0.80;;
74995;SDS011;63545;51.690;5.202;2022-09-28T17:11:47;1.70;;;1.00;;
74995;SDS011;63545;51.690;5.202;2022-09-28T17:14:12;1.10;;;0.80;;
74995;SDS011;63545;51.690;5.202;2022-09-28T17:16:38;1.00;;;0.80;;
74995;SDS011;63545;51.690;5.202;2022-09-28T17:19:23;1.00;;;0.60;;
74995;SDS011;63545;51.690;5.202;2022-09-28T17:21:50;2.00;;;0.80;;
74995;SDS011;63545;51.690;5.202;2022-09-28T17:24:16;1.05;;;0.80;;
74995;SDS011;63545;51.690;5.202;2022-09-28T17:26:42;1.33;;;1.05;;
74995;SDS011;63545;51.690;5.202;2022-09-28T17:29:12;2.17;;;1.02;;
74995;SDS011;63545;51.690;5.202;2022-09-28T17:31:38;1.37;;;1.00;;
74995;SDS011;63545;51.690;5.202;2022-09-28T17:34:05;2.25;;;0.90;;
74995;SDS011;63545;51.690;5.202;2022-09-28T17:36:30;5.10;;;1.00;;
74995;SDS011;63545;51.690;5.202;2022-09-28T17:38:56;1.57;;;1.00;;
74995;SDS011;63545;51.690;5.202;2022-09-28T17:41:22;3.58;;;0.93;;
74995;SDS011;63545;51.690;5.202;2022-09-28T17:43:47;1.30;;;1.00;;
74995;SDS011;63545;51.690;5.202;2022-09-28T17:49:00;1.60;;;0.83;;
74995;SDS011;63545;51.690;5.202;2022-09-28T17:51:28;2.40;;;1.50;;
74995;SDS011;63545;51.690;5.202;2022-09-28T17:53:56;1.45;;;1.20;;
74995;SDS011;63545;51.690;5.202;2022-09-28T17:56:23;1.23;;;1.00;;
74995;SDS011;63545;51.690;5.202;2022-09-28T17:58:48;2.03;;;1.00;;
74995;SDS011;63545;51.690;5.202;2022-09-28T18:01:14;2.00;;;0.93;;
74995;SDS011;63545;51.690;5.202;2022-09-28T18:03:39;2.57;;;1.00;;
74995;SDS011;63545;51.690;5.202;2022-09-28T18:06:06;2.30;;;1.10;;
74995;SDS011;63545;51.690;5.202;2022-09-28T18:08:33;1.97;;;1.23;;
74995;SDS011;63545;51.690;5.202;2022-09-28T18:10:58;2.97;;;0.90;;
74995;SDS011;63545;51.690;5.202;2022-09-28T18:13:25;2.08;;;1.10;;
74995;SDS011;63545;51.690;5.202;2022-09-28T18:15:51;3.78;;;1.10;;
74995;SDS011;63545;51.690;5.202;2022-09-28T18:18:17;1.65;;;1.10;;
74995;SDS011;63545;51.690;5.202;2022-09-28T18:20:43;1.53;;;1.10;;
74995;SDS011;63545;51.690;5.202;2022-09-28T18:23:08;1.77;;;1.20;;
74995;SDS011;63545;51.690;5.202;2022-09-28T18:25:33;3.90;;;1.23;;
74995;SDS011;63545;51.690;5.202;2022-09-28T18:27:58;2.83;;;1.13;;
74995;SDS011;63545;51.690;5.202;2022-09-28T18:30:24;2.47;;;1.20;;
74995;SDS011;63545;51.690;5.202;2022-09-28T18:32:51;3.13;;;1.20;;
74995;SDS011;63545;51.690;5.202;2022-09-28T18:35:16;1.30;;;1.20;;
74995;SDS011;63545;51.690;5.202;2022-09-28T18:37:41;2.93;;;1.27;;
74995;SDS011;63545;51.690;5.202;2022-09-28T18:40:08;6.07;;;1.20;;